sensor_id;sensor_type;location;lat;lon;timestamp;P1;durP1;ratioP1;P2;durP2;ratioP2
68375;SDS011;55318;52.068;5.188;2023-04-08T00:00:30;15.8;;;8.6;;
68375;SDS011;55318;52.068;5.188;2023-04-08T00:03:43;20.0;;;8.5;;
68375;SDS011;55318;52.068;5.188;2023-04-08T00:05:19;16.0;;;8.1;;
68375;SDS011;55318;52.068;5.188;2023-04-08T00:06:55;16.7;;;8.5;;
68375;SDS011;55318;52.068;5.188;2023-04-08T00:10:07;17.3;;;8.71;;
68375;SDS011;55318;52.068;5.188;2023-04-08T00:11:44;13.4;;;7.8;;
68375;SDS011;55318;52.068;5.188;2023-04-08T00:13:20;15.3;;;7.7;;
68375;SDS011;55318;52.068;5.188;2023-04-08T00:14:56;13.5;;;6.9;;
68375;SDS011;55318;52.068;5.188;2023-04-08T00:18:08;14.4;;;7.8;;
68375;SDS011;55318;52.068;5.188;2023-04-08T00:19:44;14.5;;;7.4;;
68375;SDS011;55318;52.068;5.188;2023-04-08T00:21:21;14.2;;;6.9;;
68375;SDS011;55318;52.068;5.188;2023-04-08T00:24:34;14.2;;;6.9;;
68375;SDS011;55318;52.068;5.188;2023-04-08T00:26:10;20.9;;;8.5;;
68375;SDS011;55318;52.068;5.188;2023-04-08T00:27:46;16.0;;;8.1;;
68375;SDS011;55318;52.068;5.188;2023-04-08T00:30:58;16.0;;;7.2;;
68375;SDS011;55318;52.068;5.188;2023-04-08T00:32:34;14.5;;;8.0;;
68375;SDS011;55318;52.068;5.188;2023-04-08T00:34:11;16.8;;;8.81;;
68375;SDS011;55318;52.068;5.188;2023-04-08T00:35:47;12.3;;;7.4;;
68375;SDS011;55318;52.068;5.188;2023-04-08T00:38:59;13.9;;;7.5;;
68375;SDS011;55318;52.068;5.188;2023-04-08T00:40:35;14.4;;;8.6;;
68375;SDS011;55318;52.068;5.188;2023-04-08T00:42:11;14.8;;;7.7;;
68375;SDS011;55318;52.068;5.188;2023-04-08T00:45:24;16.0;;;8.1;;
68375;SDS011;55318;52.068;5.188;2023-04-08T00:47:01;13.9;;;7.5;;
68375;SDS011;55318;52.068;5.188;2023-04-08T00:48:39;12.3;;;6.9;;
68375;SDS011;55318;52.068;5.188;2023-04-08T00:51:52;14.6;;;8.1;;
68375;SDS011;55318;52.068;5.188;2023-04-08T00:53:29;14.8;;;8.0;;
68375;SDS011;55318;52.068;5.188;2023-04-08T00:55:06;12.7;;;7.3;;
68375;SDS011;55318;52.068;5.188;2023-04-08T00:56:42;15.0;;;8.2;;
68375;SDS011;55318;52.068;5.188;2023-04-08T00:59:56;14.9;;;8.4;;
68375;SDS011;55318;52.068;5.188;2023-04-08T01:01:37;15.4;;;8.4;;
68375;SDS011;55318;52.068;5.188;2023-04-08T01:05:11;16.4;;;8.1;;
68375;SDS011;55318;52.068;5.188;2023-04-08T01:08:34;17.61;;;9.4;;
68375;SDS011;55318;52.068;5.188;2023-04-08T01:10:16;16.9;;;9.1;;
68375;SDS011;55318;52.068;5.188;2023-04-08T01:12:04;17.91;;;9.4;;
68375;SDS011;55318;52.068;5.188;2023-04-08T01:13:43;15.7;;;8.5;;
68375;SDS011;55318;52.068;5.188;2023-04-08T01:17:00;17.5;;;8.1;;
68375;SDS011;55318;52.068;5.188;2023-04-08T01:18:36;17.41;;;8.0;;
68375;SDS011;55318;52.068;5.188;2023-04-08T01:20:15;17.8;;;7.9;;
68375;SDS011;55318;52.068;5.188;2023-04-08T01:21:52;13.9;;;7.8;;
68375;SDS011;55318;52.068;5.188;2023-04-08T01:25:19;30.1;;;11.0;;
68375;SDS011;55318;52.068;5.188;2023-04-08T01:26:58;25.7;;;8.9;;
68375;SDS011;55318;52.068;5.188;2023-04-08T01:28:36;26.8;;;9.6;;
68375;SDS011;55318;52.068;5.188;2023-04-08T01:30:16;22.4;;;9.21;;
68375;SDS011;55318;52.068;5.188;2023-04-08T01:33:31;14.8;;;7.1;;
68375;SDS011;55318;52.068;5.188;2023-04-08T01:35:08;14.8;;;7.2;;
68375;SDS011;55318;52.068;5.188;2023-04-08T01:36:45;20.2;;;8.4;;
68375;SDS011;55318;52.068;5.188;2023-04-08T01:40:00;16.4;;;7.8;;
68375;SDS011;55318;52.068;5.188;2023-04-08T01:41:38;17.11;;;8.31;;
68375;SDS011;55318;52.068;5.188;2023-04-08T01:43:15;16.11;;;7.2;;
68375;SDS011;55318;52.068;5.188;2023-04-08T01:44:52;16.4;;;7.0;;
68375;SDS011;55318;52.068;5.188;2023-04-08T01:48:10;15.5;;;8.5;;
68375;SDS011;55318;52.068;5.188;2023-04-08T01:49:49;16.2;;;7.3;;
68375;SDS011;55318;52.068;5.188;2023-04-08T01:51:26;17.91;;;7.5;;
68375;SDS011;55318;52.068;5.188;2023-04-08T01:54:44;13.7;;;7.5;;
68375;SDS011;55318;52.068;5.188;2023-04-08T01:56:20;15.4;;;7.6;;
68375;SDS011;55318;52.068;5.188;2023-04-08T01:57:59;16.5;;;7.9;;
68375;SDS011;55318;52.068;5.188;2023-04-08T01:59:35;15.3;;;7.2;;
68375;SDS011;55318;52.068;5.188;2023-04-08T02:02:55;27.7;;;9.5;;
68375;SDS011;55318;52.068;5.188;2023-04-08T02:04:34;13.2;;;6.8;;
68375;SDS011;55318;52.068;5.188;2023-04-08T02:06:11;13.7;;;7.3;;
68375;SDS011;55318;52.068;5.188;2023-04-08T02:09:24;18.91;;;8.71;;
68375;SDS011;55318;52.068;5.188;2023-04-08T02:11:00;14.4;;;7.1;;
68375;SDS011;55318;52.068;5.188;2023-04-08T02:12:36;24.7;;;9.0;;
68375;SDS011;55318;52.068;5.188;2023-04-08T02:14:14;12.7;;;7.1;;
68375;SDS011;55318;52.068;5.188;2023-04-08T02:17:37;14.9;;;7.0;;
68375;SDS011;55318;52.068;5.188;2023-04-08T02:19:22;15.3;;;6.7;;
68375;SDS011;55318;52.068;5.188;2023-04-08T02:21:06;14.3;;;6.9;;
68375;SDS011;55318;52.068;5.188;2023-04-08T02:22:48;20.41;;;7.6;;
68375;SDS011;55318;52.068;5.188;2023-04-08T02:24:39;11.2;;;6.1;;
68375;SDS011;55318;52.068;5.188;2023-04-08T02:27:57;11.4;;;5.4;;
68375;SDS011;55318;52.068;5.188;2023-04-08T02:29:37;15.6;;;6.3;;
68375;SDS011;55318;52.068;5.188;2023-04-08T02:31:16;12.4;;;6.7;;
68375;SDS011;55318;52.068;5.188;2023-04-08T02:32:55;22.7;;;7.8;;
68375;SDS011;55318;52.068;5.188;2023-04-08T02:36:11;14.9;;;6.7;;
68375;SDS011;55318;52.068;5.188;2023-04-08T02:37:49;13.6;;;7.9;;
68375;SDS011;55318;52.068;5.188;2023-04-08T02:39:29;12.2;;;6.1;;
68375;SDS011;55318;52.068;5.188;2023-04-08T02:42:42;13.0;;;6.2;;
68375;SDS011;55318;52.068;5.188;2023-04-08T02:44:18;20.9;;;7.7;;
68375;SDS011;55318;52.068;5.188;2023-04-08T02:45:54;11.2;;;6.1;;
68375;SDS011;55318;52.068;5.188;2023-04-08T02:49:07;10.21;;;5.5;;
68375;SDS011;55318;52.068;5.188;2023-04-08T02:50:43;9.4;;;5.6;;
68375;SDS011;55318;52.068;5.188;2023-04-08T02:52:19;13.4;;;5.9;;
68375;SDS011;55318;52.068;5.188;2023-04-08T02:53:55;10.9;;;4.91;;
68375;SDS011;55318;52.068;5.188;2023-04-08T02:57:07;9.71;;;4.91;;
68375;SDS011;55318;52.068;5.188;2023-04-08T02:58:44;7.5;;;4.1;;
68375;SDS011;55318;52.068;5.188;2023-04-08T03:00:20;10.9;;;5.6;;
68375;SDS011;55318;52.068;5.188;2023-04-08T03:03:32;8.1;;;4.8;;
68375;SDS011;55318;52.068;5.188;2023-04-08T03:05:08;17.2;;;7.2;;
68375;SDS011;55318;52.068;5.188;2023-04-08T03:06:45;17.2;;;7.2;;
68375;SDS011;55318;52.068;5.188;2023-04-08T03:09:58;9.5;;;4.8;;
68375;SDS011;55318;52.068;5.188;2023-04-08T03:11:35;8.9;;;4.7;;
68375;SDS011;55318;52.068;5.188;2023-04-08T03:13:11;8.71;;;4.8;;
68375;SDS011;55318;52.068;5.188;2023-04-08T03:14:47;8.0;;;4.7;;
68375;SDS011;55318;52.068;5.188;2023-04-08T03:18:00;8.5;;;4.61;;
68375;SDS011;55318;52.068;5.188;2023-04-08T03:19:36;6.9;;;3.9;;
68375;SDS011;55318;52.068;5.188;2023-04-08T03:21:13;12.2;;;5.7;;
68375;SDS011;55318;52.068;5.188;2023-04-08T03:24:25;12.5;;;5.11;;
68375;SDS011;55318;52.068;5.188;2023-04-08T03:26:01;6.7;;;4.41;;
68375;SDS011;55318;52.068;5.188;2023-04-08T03:27:37;8.9;;;4.61;;
68375;SDS011;55318;52.068;5.188;2023-04-08T03:30:49;10.1;;;4.7;;
68375;SDS011;55318;52.068;5.188;2023-04-08T03:32:26;22.8;;;6.0;;
68375;SDS011;55318;52.068;5.188;2023-04-08T03:34:02;8.6;;;4.41;;
68375;SDS011;55318;52.068;5.188;2023-04-08T03:37:13;9.21;;;4.7;;
68375;SDS011;55318;52.068;5.188;2023-04-08T03:38:49;10.21;;;5.2;;
68375;SDS011;55318;52.068;5.188;2023-04-08T03:40:25;9.1;;;4.8;;
68375;SDS011;55318;52.068;5.188;2023-04-08T03:42:02;10.5;;;5.0;;
68375;SDS011;55318;52.068;5.188;2023-04-08T03:45:14;10.21;;;5.0;;
68375;SDS011;55318;52.068;5.188;2023-04-08T03:46:50;10.5;;;5.8;;
68375;SDS011;55318;52.068;5.188;2023-04-08T03:48:26;7.8;;;4.41;;
68375;SDS011;55318;52.068;5.188;2023-04-08T03:51:38;9.1;;;4.61;;
68375;SDS011;55318;52.068;5.188;2023-04-08T03:53:15;10.9;;;4.7;;
68375;SDS011;55318;52.068;5.188;2023-04-08T03:54:51;8.6;;;4.7;;
68375;SDS011;55318;52.068;5.188;2023-04-08T03:58:03;9.71;;;5.2;;
68375;SDS011;55318;52.068;5.188;2023-04-08T03:59:39;7.3;;;4.2;;
68375;SDS011;55318;52.068;5.188;2023-04-08T04:01:15;10.0;;;3.9;;
68375;SDS011;55318;52.068;5.188;2023-04-08T04:02:51;8.6;;;4.61;;
68375;SDS011;55318;52.068;5.188;2023-04-08T04:06:04;6.8;;;4.3;;
68375;SDS011;55318;52.068;5.188;2023-04-08T04:07:40;10.1;;;5.11;;
68375;SDS011;55318;52.068;5.188;2023-04-08T04:09:16;9.5;;;4.41;;
68375;SDS011;55318;52.068;5.188;2023-04-08T04:12:28;10.21;;;5.4;;
68375;SDS011;55318;52.068;5.188;2023-04-08T04:14:04;15.8;;;5.6;;
68375;SDS011;55318;52.068;5.188;2023-04-08T04:15:41;9.71;;;4.8;;
68375;SDS011;55318;52.068;5.188;2023-04-08T04:18:53;20.3;;;6.5;;
68375;SDS011;55318;52.068;5.188;2023-04-08T04:20:29;10.8;;;5.8;;
68375;SDS011;55318;52.068;5.188;2023-04-08T04:22:05;10.9;;;5.8;;
68375;SDS011;55318;52.068;5.188;2023-04-08T04:25:17;7.9;;;5.4;;
68375;SDS011;55318;52.068;5.188;2023-04-08T04:26:54;7.9;;;5.4;;
68375;SDS011;55318;52.068;5.188;2023-04-08T04:28:30;13.7;;;5.7;;
68375;SDS011;55318;52.068;5.188;2023-04-08T04:30:06;9.21;;;4.8;;
68375;SDS011;55318;52.068;5.188;2023-04-08T04:33:19;8.9;;;5.3;;
68375;SDS011;55318;52.068;5.188;2023-04-08T04:34:55;9.81;;;5.0;;
68375;SDS011;55318;52.068;5.188;2023-04-08T04:36:31;12.2;;;5.0;;
68375;SDS011;55318;52.068;5.188;2023-04-08T04:39:44;8.81;;;4.91;;
68375;SDS011;55318;52.068;5.188;2023-04-08T04:41:20;10.3;;;5.5;;
68375;SDS011;55318;52.068;5.188;2023-04-08T04:42:56;15.6;;;5.9;;
68375;SDS011;55318;52.068;5.188;2023-04-08T04:46:08;12.3;;;6.0;;
68375;SDS011;55318;52.068;5.188;2023-04-08T04:47:44;11.1;;;5.7;;
68375;SDS011;55318;52.068;5.188;2023-04-08T04:49:20;8.5;;;5.4;;
68375;SDS011;55318;52.068;5.188;2023-04-08T04:52:36;16.8;;;6.9;;
68375;SDS011;55318;52.068;5.188;2023-04-08T04:54:12;14.9;;;6.5;;
68375;SDS011;55318;52.068;5.188;2023-04-08T04:55:48;13.2;;;6.6;;
68375;SDS011;55318;52.068;5.188;2023-04-08T04:57:25;13.1;;;6.0;;
68375;SDS011;55318;52.068;5.188;2023-04-08T05:00:37;11.9;;;5.8;;
68375;SDS011;55318;52.068;5.188;2023-04-08T05:02:14;13.6;;;6.9;;
68375;SDS011;55318;52.068;5.188;2023-04-08T05:03:51;11.6;;;6.6;;
68375;SDS011;55318;52.068;5.188;2023-04-08T05:07:03;12.1;;;6.8;;
68375;SDS011;55318;52.068;5.188;2023-04-08T05:08:39;12.9;;;7.3;;
68375;SDS011;55318;52.068;5.188;2023-04-08T05:10:15;15.1;;;8.1;;
68375;SDS011;55318;52.068;5.188;2023-04-08T05:13:28;12.8;;;7.5;;
68375;SDS011;55318;52.068;5.188;2023-04-08T05:15:04;14.8;;;7.9;;
68375;SDS011;55318;52.068;5.188;2023-04-08T05:16:41;16.2;;;7.7;;
68375;SDS011;55318;52.068;5.188;2023-04-08T05:18:17;14.0;;;7.7;;
68375;SDS011;55318;52.068;5.188;2023-04-08T05:21:29;16.0;;;8.2;;
68375;SDS011;55318;52.068;5.188;2023-04-08T05:23:06;13.3;;;6.9;;
68375;SDS011;55318;52.068;5.188;2023-04-08T05:24:42;16.4;;;8.6;;
68375;SDS011;55318;52.068;5.188;2023-04-08T05:27:54;12.0;;;7.2;;
68375;SDS011;55318;52.068;5.188;2023-04-08T05:29:30;14.1;;;7.0;;
68375;SDS011;55318;52.068;5.188;2023-04-08T05:31:06;25.2;;;8.71;;
68375;SDS011;55318;52.068;5.188;2023-04-08T05:34:19;25.9;;;10.21;;
68375;SDS011;55318;52.068;5.188;2023-04-08T05:35:55;19.0;;;9.0;;
68375;SDS011;55318;52.068;5.188;2023-04-08T05:37:31;33.3;;;12.0;;
68375;SDS011;55318;52.068;5.188;2023-04-08T05:39:07;18.2;;;10.0;;
68375;SDS011;55318;52.068;5.188;2023-04-08T05:42:19;25.3;;;11.3;;
68375;SDS011;55318;52.068;5.188;2023-04-08T05:43:56;20.9;;;11.3;;
68375;SDS011;55318;52.068;5.188;2023-04-08T05:45:32;18.11;;;10.1;;
68375;SDS011;55318;52.068;5.188;2023-04-08T05:48:44;33.6;;;13.7;;
68375;SDS011;55318;52.068;5.188;2023-04-08T05:50:20;23.6;;;11.6;;
68375;SDS011;55318;52.068;5.188;2023-04-08T05:51:56;18.5;;;10.21;;
68375;SDS011;55318;52.068;5.188;2023-04-08T05:55:08;29.7;;;13.5;;
68375;SDS011;55318;52.068;5.188;2023-04-08T05:56:45;53.3;;;18.3;;
68375;SDS011;55318;52.068;5.188;2023-04-08T05:58:21;37.21;;;14.5;;
68375;SDS011;55318;52.068;5.188;2023-04-08T06:01:33;20.7;;;11.1;;
68375;SDS011;55318;52.068;5.188;2023-04-08T06:03:09;22.4;;;11.0;;
68375;SDS011;55318;52.068;5.188;2023-04-08T06:04:45;37.71;;;14.1;;
68375;SDS011;55318;52.068;5.188;2023-04-08T06:06:21;18.11;;;10.6;;
68375;SDS011;55318;52.068;5.188;2023-04-08T06:09:34;17.8;;;9.9;;
68375;SDS011;55318;52.068;5.188;2023-04-08T06:11:10;18.5;;;10.7;;
68375;SDS011;55318;52.068;5.188;2023-04-08T06:12:46;21.1;;;11.6;;
68375;SDS011;55318;52.068;5.188;2023-04-08T06:16:08;20.2;;;10.9;;
68375;SDS011;55318;52.068;5.188;2023-04-08T06:17:45;25.3;;;11.7;;
68375;SDS011;55318;52.068;5.188;2023-04-08T06:19:22;18.5;;;10.21;;
68375;SDS011;55318;52.068;5.188;2023-04-08T06:20:58;18.61;;;11.1;;
68375;SDS011;55318;52.068;5.188;2023-04-08T06:24:10;21.4;;;10.5;;
68375;SDS011;55318;52.068;5.188;2023-04-08T06:25:46;28.8;;;12.8;;
68375;SDS011;55318;52.068;5.188;2023-04-08T06:27:22;18.7;;;10.7;;
68375;SDS011;55318;52.068;5.188;2023-04-08T06:30:35;16.8;;;9.4;;
68375;SDS011;55318;52.068;5.188;2023-04-08T06:32:11;18.91;;;10.5;;
68375;SDS011;55318;52.068;5.188;2023-04-08T06:33:47;16.2;;;9.21;;
68375;SDS011;55318;52.068;5.188;2023-04-08T06:36:59;16.3;;;9.9;;
68375;SDS011;55318;52.068;5.188;2023-04-08T06:38:35;22.5;;;12.3;;
68375;SDS011;55318;52.068;5.188;2023-04-08T06:40:11;18.7;;;10.0;;
68375;SDS011;55318;52.068;5.188;2023-04-08T06:43:24;18.41;;;10.5;;
68375;SDS011;55318;52.068;5.188;2023-04-08T06:45:00;21.7;;;10.8;;
68375;SDS011;55318;52.068;5.188;2023-04-08T06:46:36;19.2;;;10.5;;
68375;SDS011;55318;52.068;5.188;2023-04-08T06:48:12;19.41;;;10.1;;
68375;SDS011;55318;52.068;5.188;2023-04-08T06:51:25;21.0;;;10.4;;
68375;SDS011;55318;52.068;5.188;2023-04-08T06:53:01;16.9;;;9.81;;
68375;SDS011;55318;52.068;5.188;2023-04-08T06:54:37;16.61;;;9.21;;
68375;SDS011;55318;52.068;5.188;2023-04-08T06:57:49;19.11;;;10.4;;
68375;SDS011;55318;52.068;5.188;2023-04-08T06:59:25;17.11;;;10.9;;
68375;SDS011;55318;52.068;5.188;2023-04-08T07:01:02;18.3;;;10.6;;
68375;SDS011;55318;52.068;5.188;2023-04-08T07:04:14;16.61;;;9.9;;
68375;SDS011;55318;52.068;5.188;2023-04-08T07:05:51;21.3;;;11.4;;
68375;SDS011;55318;52.068;5.188;2023-04-08T07:07:26;21.0;;;11.4;;
68375;SDS011;55318;52.068;5.188;2023-04-08T07:09:02;19.0;;;10.21;;
68375;SDS011;55318;52.068;5.188;2023-04-08T07:12:15;16.3;;;10.0;;
68375;SDS011;55318;52.068;5.188;2023-04-08T07:13:51;15.8;;;10.21;;
68375;SDS011;55318;52.068;5.188;2023-04-08T07:15:27;16.5;;;10.21;;
68375;SDS011;55318;52.068;5.188;2023-04-08T07:18:40;13.3;;;8.4;;
68375;SDS011;55318;52.068;5.188;2023-04-08T07:20:16;18.5;;;9.5;;
68375;SDS011;55318;52.068;5.188;2023-04-08T07:21:52;16.8;;;9.0;;
68375;SDS011;55318;52.068;5.188;2023-04-08T07:25:05;17.7;;;9.6;;
68375;SDS011;55318;52.068;5.188;2023-04-08T07:26:41;15.8;;;8.81;;
68375;SDS011;55318;52.068;5.188;2023-04-08T07:28:18;16.9;;;8.6;;
68375;SDS011;55318;52.068;5.188;2023-04-08T07:31:30;16.11;;;8.9;;
68375;SDS011;55318;52.068;5.188;2023-04-08T07:33:06;15.9;;;9.5;;
68375;SDS011;55318;52.068;5.188;2023-04-08T07:34:42;14.2;;;9.1;;
68375;SDS011;55318;52.068;5.188;2023-04-08T07:36:18;14.8;;;8.5;;
68375;SDS011;55318;52.068;5.188;2023-04-08T07:39:31;12.6;;;8.0;;
68375;SDS011;55318;52.068;5.188;2023-04-08T07:41:07;14.4;;;8.1;;
68375;SDS011;55318;52.068;5.188;2023-04-08T07:42:43;12.2;;;7.8;;
68375;SDS011;55318;52.068;5.188;2023-04-08T07:45:59;12.2;;;7.6;;
68375;SDS011;55318;52.068;5.188;2023-04-08T07:47:35;13.7;;;7.9;;
68375;SDS011;55318;52.068;5.188;2023-04-08T07:49:11;12.7;;;7.9;;
68375;SDS011;55318;52.068;5.188;2023-04-08T07:52:23;13.0;;;7.6;;
68375;SDS011;55318;52.068;5.188;2023-04-08T07:53:59;12.7;;;7.5;;
68375;SDS011;55318;52.068;5.188;2023-04-08T07:55:35;13.7;;;8.0;;
68375;SDS011;55318;52.068;5.188;2023-04-08T07:57:12;13.3;;;8.31;;
68375;SDS011;55318;52.068;5.188;2023-04-08T08:00:24;13.7;;;8.0;;
68375;SDS011;55318;52.068;5.188;2023-04-08T08:02:00;12.7;;;7.5;;
68375;SDS011;55318;52.068;5.188;2023-04-08T08:03:36;13.0;;;7.7;;
68375;SDS011;55318;52.068;5.188;2023-04-08T08:06:49;11.1;;;7.0;;
68375;SDS011;55318;52.068;5.188;2023-04-08T08:08:25;12.3;;;7.2;;
68375;SDS011;55318;52.068;5.188;2023-04-08T08:10:01;11.4;;;7.1;;
68375;SDS011;55318;52.068;5.188;2023-04-08T08:13:13;13.7;;;6.9;;
68375;SDS011;55318;52.068;5.188;2023-04-08T08:14:49;12.3;;;7.6;;
68375;SDS011;55318;52.068;5.188;2023-04-08T08:16:26;11.6;;;7.2;;
68375;SDS011;55318;52.068;5.188;2023-04-08T08:19:39;9.9;;;6.3;;
68375;SDS011;55318;52.068;5.188;2023-04-08T08:21:15;10.0;;;6.1;;
68375;SDS011;55318;52.068;5.188;2023-04-08T08:22:51;10.7;;;6.7;;
68375;SDS011;55318;52.068;5.188;2023-04-08T08:24:27;10.9;;;7.0;;
68375;SDS011;55318;52.068;5.188;2023-04-08T08:27:42;8.81;;;6.4;;
68375;SDS011;55318;52.068;5.188;2023-04-08T08:29:18;10.6;;;6.0;;
68375;SDS011;55318;52.068;5.188;2023-04-08T08:30:54;9.71;;;6.3;;
68375;SDS011;55318;52.068;5.188;2023-04-08T08:34:06;11.3;;;6.4;;
68375;SDS011;55318;52.068;5.188;2023-04-08T08:35:43;11.1;;;7.2;;
68375;SDS011;55318;52.068;5.188;2023-04-08T08:37:19;9.71;;;6.5;;
68375;SDS011;55318;52.068;5.188;2023-04-08T08:40:31;10.8;;;6.6;;
68375;SDS011;55318;52.068;5.188;2023-04-08T08:42:17;10.3;;;6.2;;
68375;SDS011;55318;52.068;5.188;2023-04-08T08:43:54;13.0;;;7.0;;
68375;SDS011;55318;52.068;5.188;2023-04-08T08:45:32;10.21;;;6.2;;
68375;SDS011;55318;52.068;5.188;2023-04-08T08:48:44;10.6;;;6.2;;
68375;SDS011;55318;52.068;5.188;2023-04-08T08:50:20;9.5;;;6.0;;
68375;SDS011;55318;52.068;5.188;2023-04-08T08:51:56;8.31;;;5.11;;
68375;SDS011;55318;52.068;5.188;2023-04-08T08:55:12;9.9;;;5.8;;
68375;SDS011;55318;52.068;5.188;2023-04-08T08:56:48;8.71;;;5.5;;
68375;SDS011;55318;52.068;5.188;2023-04-08T08:58:25;7.6;;;5.2;;
68375;SDS011;55318;52.068;5.188;2023-04-08T09:00:01;9.9;;;5.5;;
68375;SDS011;55318;52.068;5.188;2023-04-08T09:03:14;9.4;;;5.5;;
68375;SDS011;55318;52.068;5.188;2023-04-08T09:04:55;8.0;;;4.41;;
68375;SDS011;55318;52.068;5.188;2023-04-08T09:06:34;6.8;;;4.61;;
68375;SDS011;55318;52.068;5.188;2023-04-08T09:09:58;10.21;;;5.4;;
68375;SDS011;55318;52.068;5.188;2023-04-08T09:11:35;6.7;;;4.41;;
68375;SDS011;55318;52.068;5.188;2023-04-08T09:13:12;6.4;;;4.2;;
68375;SDS011;55318;52.068;5.188;2023-04-08T09:14:48;7.6;;;4.3;;
68375;SDS011;55318;52.068;5.188;2023-04-08T09:18:01;8.1;;;4.7;;
68375;SDS011;55318;52.068;5.188;2023-04-08T09:19:37;8.81;;;4.91;;
68375;SDS011;55318;52.068;5.188;2023-04-08T09:21:14;5.6;;;3.6;;
68375;SDS011;55318;52.068;5.188;2023-04-08T09:24:33;7.3;;;4.41;;
68375;SDS011;55318;52.068;5.188;2023-04-08T09:26:11;7.2;;;4.61;;
68375;SDS011;55318;52.068;5.188;2023-04-08T09:27:49;8.81;;;5.2;;
68375;SDS011;55318;52.068;5.188;2023-04-08T09:29:25;8.2;;;4.5;;
68375;SDS011;55318;52.068;5.188;2023-04-08T09:32:54;6.7;;;4.3;;
68375;SDS011;55318;52.068;5.188;2023-04-08T09:34:31;6.6;;;4.41;;
68375;SDS011;55318;52.068;5.188;2023-04-08T09:36:07;6.5;;;4.7;;
68375;SDS011;55318;52.068;5.188;2023-04-08T09:37:43;7.9;;;3.9;;
68375;SDS011;55318;52.068;5.188;2023-04-08T09:40:57;7.3;;;4.3;;
68375;SDS011;55318;52.068;5.188;2023-04-08T09:42:35;7.0;;;4.0;;
68375;SDS011;55318;52.068;5.188;2023-04-08T09:44:15;8.31;;;4.61;;
68375;SDS011;55318;52.068;5.188;2023-04-08T09:47:32;8.31;;;4.2;;
68375;SDS011;55318;52.068;5.188;2023-04-08T09:49:22;6.8;;;4.2;;
68375;SDS011;55318;52.068;5.188;2023-04-08T09:51:04;6.6;;;4.5;;
68375;SDS011;55318;52.068;5.188;2023-04-08T09:52:43;6.3;;;4.1;;
68375;SDS011;55318;52.068;5.188;2023-04-08T09:54:21;5.7;;;4.0;;
68375;SDS011;55318;52.068;5.188;2023-04-08T09:57:50;6.2;;;4.1;;
68375;SDS011;55318;52.068;5.188;2023-04-08T09:59:29;5.7;;;4.3;;
68375;SDS011;55318;52.068;5.188;2023-04-08T10:01:09;7.9;;;3.9;;
68375;SDS011;55318;52.068;5.188;2023-04-08T10:02:53;8.81;;;4.61;;
68375;SDS011;55318;52.068;5.188;2023-04-08T10:06:16;6.6;;;4.1;;
68375;SDS011;55318;52.068;5.188;2023-04-08T10:07:53;5.6;;;3.4;;
68375;SDS011;55318;52.068;5.188;2023-04-08T10:09:31;6.2;;;4.0;;
68375;SDS011;55318;52.068;5.188;2023-04-08T10:11:08;5.6;;;3.9;;
68375;SDS011;55318;52.068;5.188;2023-04-08T10:14:21;8.31;;;3.9;;
68375;SDS011;55318;52.068;5.188;2023-04-08T10:16:29;6.3;;;3.9;;
68375;SDS011;55318;52.068;5.188;2023-04-08T10:18:36;6.3;;;3.3;;
68375;SDS011;55318;52.068;5.188;2023-04-08T10:20:34;6.9;;;4.2;;
68375;SDS011;55318;52.068;5.188;2023-04-08T10:22:48;6.8;;;3.9;;
68375;SDS011;55318;52.068;5.188;2023-04-08T10:24:25;6.4;;;4.0;;
68375;SDS011;55318;52.068;5.188;2023-04-08T10:26:01;5.3;;;3.4;;
68375;SDS011;55318;52.068;5.188;2023-04-08T10:28:22;5.9;;;3.5;;
68375;SDS011;55318;52.068;5.188;2023-04-08T10:29:59;8.4;;;4.3;;
68375;SDS011;55318;52.068;5.188;2023-04-08T10:33:15;5.5;;;3.6;;
68375;SDS011;55318;52.068;5.188;2023-04-08T10:34:54;6.1;;;3.4;;
68375;SDS011;55318;52.068;5.188;2023-04-08T10:36:30;5.8;;;3.6;;
68375;SDS011;55318;52.068;5.188;2023-04-08T10:39:47;6.2;;;3.3;;
68375;SDS011;55318;52.068;5.188;2023-04-08T10:41:23;4.7;;;3.4;;
68375;SDS011;55318;52.068;5.188;2023-04-08T10:43:00;6.0;;;4.0;;
68375;SDS011;55318;52.068;5.188;2023-04-08T10:44:36;5.3;;;3.7;;
68375;SDS011;55318;52.068;5.188;2023-04-08T10:47:48;5.8;;;3.4;;
68375;SDS011;55318;52.068;5.188;2023-04-08T10:49:30;6.3;;;3.3;;
68375;SDS011;55318;52.068;5.188;2023-04-08T10:51:08;5.6;;;3.5;;
68375;SDS011;55318;52.068;5.188;2023-04-08T10:54:22;5.8;;;3.3;;
68375;SDS011;55318;52.068;5.188;2023-04-08T10:56:06;9.9;;;3.7;;
68375;SDS011;55318;52.068;5.188;2023-04-08T10:57:43;5.0;;;3.5;;
68375;SDS011;55318;52.068;5.188;2023-04-08T10:59:25;7.5;;;3.1;;
68375;SDS011;55318;52.068;5.188;2023-04-08T11:02:40;7.2;;;3.6;;
68375;SDS011;55318;52.068;5.188;2023-04-08T11:04:17;4.8;;;3.7;;
68375;SDS011;55318;52.068;5.188;2023-04-08T11:05:56;4.91;;;3.5;;
68375;SDS011;55318;52.068;5.188;2023-04-08T11:07:33;8.1;;;3.5;;
68375;SDS011;55318;52.068;5.188;2023-04-08T11:10:51;6.2;;;3.4;;
68375;SDS011;55318;52.068;5.188;2023-04-08T11:12:29;4.1;;;3.0;;
68375;SDS011;55318;52.068;5.188;2023-04-08T11:14:06;6.4;;;3.7;;
68375;SDS011;55318;52.068;5.188;2023-04-08T11:17:19;8.4;;;3.2;;
68375;SDS011;55318;52.068;5.188;2023-04-08T11:18:56;5.4;;;3.8;;
68375;SDS011;55318;52.068;5.188;2023-04-08T11:20:32;5.4;;;3.4;;
68375;SDS011;55318;52.068;5.188;2023-04-08T11:23:48;5.6;;;3.9;;
68375;SDS011;55318;52.068;5.188;2023-04-08T11:25:24;6.1;;;3.4;;
68375;SDS011;55318;52.068;5.188;2023-04-08T11:27:00;6.7;;;3.7;;
68375;SDS011;55318;52.068;5.188;2023-04-08T11:28:36;5.11;;;2.9;;
68375;SDS011;55318;52.068;5.188;2023-04-08T11:31:49;6.3;;;3.5;;
68375;SDS011;55318;52.068;5.188;2023-04-08T11:33:25;8.6;;;4.1;;
68375;SDS011;55318;52.068;5.188;2023-04-08T11:35:01;5.7;;;3.6;;
68375;SDS011;55318;52.068;5.188;2023-04-08T11:38:16;5.8;;;3.0;;
68375;SDS011;55318;52.068;5.188;2023-04-08T11:39:57;4.8;;;3.3;;
68375;SDS011;55318;52.068;5.188;2023-04-08T11:41:35;4.3;;;2.7;;
68375;SDS011;55318;52.068;5.188;2023-04-08T11:43:12;5.4;;;3.0;;
68375;SDS011;55318;52.068;5.188;2023-04-08T11:46:25;4.8;;;3.2;;
68375;SDS011;55318;52.068;5.188;2023-04-08T11:48:07;6.7;;;3.4;;
68375;SDS011;55318;52.068;5.188;2023-04-08T11:49:44;6.5;;;3.5;;
68375;SDS011;55318;52.068;5.188;2023-04-08T11:52:57;6.3;;;3.3;;
68375;SDS011;55318;52.068;5.188;2023-04-08T11:54:33;5.4;;;2.9;;
68375;SDS011;55318;52.068;5.188;2023-04-08T11:56:16;4.7;;;3.1;;
68375;SDS011;55318;52.068;5.188;2023-04-08T11:57:52;4.3;;;3.4;;
68375;SDS011;55318;52.068;5.188;2023-04-08T12:01:06;3.8;;;2.6;;
68375;SDS011;55318;52.068;5.188;2023-04-08T12:02:42;4.2;;;2.9;;
68375;SDS011;55318;52.068;5.188;2023-04-08T12:04:18;4.41;;;2.8;;
68375;SDS011;55318;52.068;5.188;2023-04-08T12:13:14;4.7;;;3.2;;
68375;SDS011;55318;52.068;5.188;2023-04-08T12:14:50;6.9;;;3.8;;
68375;SDS011;55318;52.068;5.188;2023-04-08T12:18:02;5.3;;;3.3;;
68375;SDS011;55318;52.068;5.188;2023-04-08T12:19:38;7.3;;;3.4;;
68375;SDS011;55318;52.068;5.188;2023-04-08T12:21:15;6.6;;;3.0;;
68375;SDS011;55318;52.068;5.188;2023-04-08T12:22:51;5.8;;;3.1;;
68375;SDS011;55318;52.068;5.188;2023-04-08T12:26:03;6.7;;;4.0;;
68375;SDS011;55318;52.068;5.188;2023-04-08T12:27:39;6.8;;;3.5;;
68375;SDS011;55318;52.068;5.188;2023-04-08T12:29:15;6.4;;;3.3;;
68375;SDS011;55318;52.068;5.188;2023-04-08T12:32:28;9.31;;;4.0;;
68375;SDS011;55318;52.068;5.188;2023-04-08T12:34:04;6.7;;;3.4;;
68375;SDS011;55318;52.068;5.188;2023-04-08T12:35:40;9.5;;;4.0;;
68375;SDS011;55318;52.068;5.188;2023-04-08T12:38:52;9.1;;;4.5;;
68375;SDS011;55318;52.068;5.188;2023-04-08T12:40:28;9.0;;;5.11;;
68375;SDS011;55318;52.068;5.188;2023-04-08T12:42:04;7.3;;;4.3;;
68375;SDS011;55318;52.068;5.188;2023-04-08T12:45:17;5.11;;;3.5;;
68375;SDS011;55318;52.068;5.188;2023-04-08T12:46:53;6.0;;;3.6;;
68375;SDS011;55318;52.068;5.188;2023-04-08T12:48:29;9.6;;;4.5;;
68375;SDS011;55318;52.068;5.188;2023-04-08T12:50:05;6.9;;;3.5;;
68375;SDS011;55318;52.068;5.188;2023-04-08T12:53:19;5.5;;;3.6;;
68375;SDS011;55318;52.068;5.188;2023-04-08T12:54:55;7.2;;;4.0;;
68375;SDS011;55318;52.068;5.188;2023-04-08T12:56:31;7.4;;;4.1;;